createdAt,value
2022-11-12T10:26:02.232Z,102306.5546875
2022-11-12T10:27:01.885Z,102309.4609375
2022-11-12T10:28:02.053Z,102306.625
2022-11-12T10:29:01.993Z,102306.4140625
2022-11-12T10:30:02.067Z,102305.4609375
2022-11-12T10:31:08.060Z,102304.6015625
2022-11-12T10:32:02.060Z,102305.33984375
2022-11-12T10:33:02.088Z,102309.3125
2022-11-12T10:34:02.007Z,102305.1171875
2022-11-12T10:35:01.839Z,102302.59375
2022-11-12T10:36:02.299Z,102295.9375
2022-11-12T10:37:01.963Z,102296.6484375
2022-11-12T10:38:01.998Z,102296.7890625
2022-11-12T10:39:02.045Z,102299.73046875
2022-11-12T10:40:02.032Z,102289.46875
2022-11-12T10:41:05.593Z,102299.06640625
2022-11-12T10:42:05.154Z,102299.87109375
2022-11-12T10:43:02.026Z,102296.64453125
2022-11-12T10:44:01.992Z,102296.09765625
2022-11-12T10:45:01.932Z,102298.4140625
2022-11-12T10:46:02.020Z,102303.66796875
2022-11-12T10:47:02.042Z,102303.578125
2022-11-12T10:48:01.975Z,102302.12890625
2022-11-12T10:49:01.960Z,102305.60546875
2022-11-12T10:50:01.917Z,102304.15625
2022-11-12T10:51:01.980Z,102302.80859375
2022-11-12T10:52:02.054Z,102302.88671875
2022-11-12T10:53:05.020Z,102303.7265625
2022-11-12T10:54:02.044Z,102302.01953125
2022-11-12T10:55:01.864Z,102299.91796875
2022-11-12T10:56:02.303Z,102301.35546875
2022-11-12T10:57:02.093Z,102296.56640625
2022-11-12T10:58:02.053Z,102299.98828125
2022-11-12T10:59:01.901Z,102298.62109375
2022-11-12T11:00:02.098Z,102290.70703125
2022-11-12T11:01:02.392Z,102297.2734375
2022-11-12T11:02:02.134Z,102293.2109375
2022-11-12T11:03:02.078Z,102293.84765625
2022-11-12T11:04:04.998Z,102292.0078125
2022-11-12T11:05:01.946Z,102293.4296875
2022-11-12T11:06:02.267Z,102292.62890625
2022-11-12T11:07:02.003Z,102293.1015625
2022-11-12T11:08:02.086Z,102290.7265625
2022-11-12T11:09:02.050Z,102293.5859375
2022-11-12T11:10:01.866Z,102291.64453125
2022-11-12T11:11:02.352Z,102290.89453125
2022-11-12T11:12:02.030Z,102284.859375
2022-11-12T11:13:01.859Z,102284.87109375
2022-11-12T11:14:02.084Z,102282.640625
2022-11-12T11:15:05.132Z,102280.59375
2022-11-12T11:16:02.388Z,102283.4765625
2022-11-12T11:17:01.929Z,102280.484375
2022-11-12T11:18:01.997Z,102281.12890625
2022-11-12T11:19:02.101Z,102280.06640625
2022-11-12T11:20:01.921Z,102282.92578125
2022-11-12T11:21:01.874Z,102283.91015625
2022-11-12T11:22:01.957Z,102282.53515625
2022-11-12T11:23:01.964Z,102281.13671875
2022-11-12T11:24:01.933Z,102279.953125
2022-11-12T11:25:01.856Z,102278.3203125
2022-11-12T11:26:04.980Z,102275.671875
2022-11-12T11:27:02.073Z,102277.0390625
2022-11-12T11:28:02.083Z,102272.95703125
2022-11-12T11:29:02.073Z,102271.80078125
2022-11-12T11:30:02.079Z,102268.16015625
2022-11-12T11:31:01.938Z,102269.4765625
2022-11-12T11:32:01.991Z,102272.4296875
2022-11-12T11:33:01.869Z,102270.25
2022-11-12T11:34:02.076Z,102270.05859375
2022-11-12T11:35:01.940Z,102267.62890625
2022-11-12T11:36:01.949Z,102265.3984375
2022-11-12T11:37:04.866Z,102266.84765625
2022-11-12T11:38:01.958Z,102261.359375
2022-11-12T11:39:02.011Z,102257.546875
2022-11-12T11:40:02.250Z,102256.61328125
2022-11-12T11:41:02.045Z,102256.140625
2022-11-12T11:42:01.849Z,102251.87109375
2022-11-12T11:43:01.974Z,102252.3984375
2022-11-12T11:44:02.106Z,102249.2578125
2022-11-12T11:45:02.242Z,102248.80078125
2022-11-12T11:46:02.223Z,102249.7109375
2022-11-12T11:47:01.851Z,102247.44140625
2022-11-12T11:48:05.000Z,102248.609375
2022-11-12T11:49:02.029Z,102253.41796875
2022-11-12T11:50:01.937Z,102251.4140625
2022-11-12T11:51:02.291Z,102251.13671875
2022-11-12T11:52:02.030Z,102251.00390625
2022-11-12T11:53:01.975Z,102251.8125
2022-11-12T11:54:01.981Z,102248.71484375
2022-11-12T11:55:01.886Z,102245.93359375
2022-11-12T11:56:01.956Z,102243.82421875
2022-11-12T11:57:01.948Z,102242.41015625
2022-11-12T11:58:02.014Z,102241.453125
2022-11-12T11:59:04.956Z,102239.984375
2022-11-12T12:00:02.247Z,102238.45703125
2022-11-12T12:01:02.342Z,102236.49609375
2022-11-12T12:02:02.072Z,102237.1484375
2022-11-12T12:03:02.007Z,102236.69921875
2022-11-12T12:04:02.123Z,102230.2734375
2022-11-12T12:05:01.942Z,102234.4140625
2022-11-12T12:06:01.897Z,102229.2265625
2022-11-12T12:07:02.007Z,102228.640625
2022-11-12T12:08:01.869Z,102231.23828125
2022-11-12T12:09:02.030Z,102228.24609375
2022-11-12T12:10:09.280Z,102230.2578125
2022-11-12T12:11:08.049Z,102233.875
2022-11-12T12:12:01.939Z,102228.8515625
2022-11-12T12:13:02.045Z,102231.45703125
2022-11-12T12:14:01.988Z,102226.828125
2022-11-12T12:15:02.304Z,102226.73046875
2022-11-12T12:16:02.214Z,102230.1953125
2022-11-12T12:17:01.934Z,102225.82421875
2022-11-12T12:18:02.053Z,102220.03515625
2022-11-12T12:19:01.850Z,102221.21484375
2022-11-12T12:20:02.260Z,102219.29296875
2022-11-12T12:21:04.975Z,102217.3984375
2022-11-12T12:22:01.938Z,102214.57421875
2022-11-12T12:23:01.865Z,102214.21875
2022-11-12T12:24:01.988Z,102218.30078125
2022-11-12T12:25:02.343Z,102216.890625
2022-11-12T12:26:01.946Z,102214.7421875
2022-11-12T12:27:01.867Z,102212.16796875
2022-11-12T12:28:01.942Z,102212.41015625
2022-11-12T12:29:01.891Z,102216.6015625
2022-11-12T12:30:01.947Z,102215.953125
2022-11-12T12:31:01.864Z,102213.24609375
2022-11-12T12:32:04.915Z,102214.77734375
2022-11-12T12:33:01.973Z,102216.0078125
2022-11-12T12:34:02.003Z,102217.10546875
2022-11-12T12:35:02.337Z,102216.06640625
2022-11-12T12:36:02.054Z,102215.90234375
2022-11-12T12:37:01.937Z,102214.35546875
2022-11-12T12:38:01.859Z,102216.1640625
2022-11-12T12:39:01.933Z,102214.171875
2022-11-12T12:40:02.288Z,102211.71484375
2022-11-12T12:41:02.055Z,102208.78515625
2022-11-12T12:42:01.928Z,102207.265625
2022-11-12T12:43:04.912Z,102205.4296875
2022-11-12T12:44:02.094Z,102200.046875
2022-11-12T12:45:02.241Z,102199.7578125
2022-11-12T12:46:02.287Z,102200.03515625
2022-11-12T12:47:02.018Z,102200.24609375
2022-11-12T12:48:01.984Z,102194.91796875
2022-11-12T12:49:01.861Z,102196.98828125
2022-11-12T12:50:01.846Z,102196.90625
2022-11-12T12:51:01.846Z,102193.3828125
2022-11-12T12:52:02.038Z,102193.98828125
2022-11-12T12:53:02.016Z,102189.875
2022-11-12T12:54:05.058Z,102193.16796875
2022-11-12T12:55:02.090Z,102185.25
2022-11-12T12:56:01.969Z,102191.16796875
2022-11-12T12:57:01.976Z,102189.62890625
2022-11-12T12:58:02.097Z,102189.21484375
2022-11-12T12:59:01.860Z,102190.6015625
2022-11-12T13:00:02.240Z,102186.11328125
2022-11-12T13:01:02.407Z,102185.7578125
2022-11-12T13:02:01.955Z,102183.2890625
2022-11-12T13:03:01.962Z,102179.06640625
2022-11-12T13:04:02.003Z,102181.0078125
2022-11-12T13:05:07.834Z,102173.95703125
2022-11-12T13:06:02.050Z,102176.7109375
2022-11-12T13:07:02.059Z,102175.578125
2022-11-12T13:08:01.867Z,102173.33203125
2022-11-12T13:09:01.944Z,102169.96484375
2022-11-12T13:10:01.875Z,102169.453125
2022-11-12T13:11:02.210Z,102167.921875
2022-11-12T13:12:01.857Z,102167.87109375
2022-11-12T13:13:01.972Z,102167.35546875
2022-11-12T13:14:02.017Z,102170.56640625
2022-11-12T13:15:02.234Z,102171.2265625
2022-11-12T13:16:07.937Z,102173.65625
2022-11-12T13:17:01.987Z,102174.80859375
2022-11-12T13:18:01.951Z,102169.58203125
2022-11-12T13:19:02.149Z,102171.0546875
2022-11-12T13:20:02.229Z,102169.07421875
2022-11-12T13:21:02.051Z,102164.9140625
2022-11-12T13:22:02.016Z,102163.73828125
2022-11-12T13:23:01.869Z,102163.1875
2022-11-12T13:24:02.030Z,102163.69921875
2022-11-12T13:25:02.325Z,102163.33203125
2022-11-12T13:26:02.049Z,102164.95703125
2022-11-12T13:27:04.973Z,102164.43359375
2022-11-12T13:28:01.942Z,102165.57421875
2022-11-12T13:29:01.849Z,102165.984375
2022-11-12T13:30:02.238Z,102163.58203125
2022-11-12T13:31:02.353Z,102163.31640625
2022-11-12T13:32:01.948Z,102162.56640625
2022-11-12T13:33:02.006Z,102162.3359375
2022-11-12T13:34:01.985Z,102160.05078125
2022-11-12T13:35:02.289Z,102161.03515625
2022-11-12T13:36:01.853Z,102159.7890625
2022-11-12T13:37:01.953Z,102157.6015625
2022-11-12T13:38:04.965Z,102159.76171875
2022-11-12T13:39:04.941Z,102156.19140625
2022-11-12T13:40:01.974Z,102160.56640625
2022-11-12T13:41:01.949Z,102156.7578125
2022-11-12T13:42:01.849Z,102158
2022-11-12T13:43:02.041Z,102157.1875
2022-11-12T13:44:01.964Z,102153.40234375
2022-11-12T13:45:01.993Z,102154.3828125
2022-11-12T13:46:02.058Z,102151.98828125
2022-11-12T13:47:01.986Z,102150.5703125
2022-11-12T13:48:02.020Z,102150.65234375
2022-11-12T13:49:05.002Z,102148.57421875
2022-11-12T13:50:02.244Z,102148.69140625
2022-11-12T13:51:02.052Z,102149.4453125
2022-11-12T13:52:01.998Z,102153.015625
2022-11-12T13:53:01.994Z,102149.52734375
2022-11-12T13:54:01.993Z,102151.33984375
2022-11-12T13:55:02.269Z,102146.90625
2022-11-12T13:56:01.987Z,102151.13671875
2022-11-12T13:57:02.046Z,102149.41015625
2022-11-12T13:58:01.860Z,102147.390625
2022-11-12T13:59:01.960Z,102150.16015625
2022-11-12T14:00:05.454Z,102147.87890625
2022-11-12T14:01:02.144Z,102148.76953125
2022-11-12T14:02:02.286Z,102148.0390625
2022-11-12T14:03:02.033Z,102147.4453125
2022-11-12T14:04:01.999Z,102148.51171875
2022-11-12T14:05:02.282Z,102149.08984375
2022-11-12T14:06:01.847Z,102141.08984375
2022-11-12T14:07:02.010Z,102144.4921875
2022-11-12T14:08:01.980Z,102138.625
2022-11-12T14:09:01.984Z,102133.609375
2022-11-12T14:10:02.217Z,102132.37109375
2022-11-12T14:11:04.996Z,102128.13671875
2022-11-12T14:12:01.931Z,102129.734375
2022-11-12T14:13:01.942Z,102132.68359375
2022-11-12T14:14:02.024Z,102132.87890625
2022-11-12T14:15:02.302Z,102132.56640625
2022-11-12T14:16:02.051Z,102134.96875
2022-11-12T14:17:02.213Z,102131.515625
2022-11-12T14:18:01.861Z,102132.5
2022-11-12T14:19:02.064Z,102130.4375
2022-11-12T14:20:02.229Z,102131.6875
2022-11-12T14:21:02.088Z,102129.6796875
2022-11-12T14:22:04.884Z,102129.109375
2022-11-12T14:23:02.064Z,102131.83984375
2022-11-12T14:24:01.980Z,102132.36328125
2022-11-12T14:25:02.284Z,102129.28125
2022-11-12T14:26:01.942Z,102130.96875
2022-11-12T14:27:01.975Z,102132.69921875
2022-11-12T14:28:01.974Z,102127.765625
2022-11-12T14:29:01.888Z,102128.65625
2022-11-12T14:30:02.310Z,102128.23046875
2022-11-12T14:31:01.940Z,102127.515625
2022-11-12T14:32:02.290Z,102125.953125
2022-11-12T14:33:04.969Z,102124.95703125
2022-11-12T14:34:01.947Z,102128.4375
2022-11-12T14:35:02.292Z,102126.62890625
2022-11-12T14:36:02.035Z,102125.75390625
2022-11-12T14:37:01.869Z,102128.59375
2022-11-12T14:38:01.949Z,102129.21875
2022-11-12T14:39:01.867Z,102121.73046875
2022-11-12T14:40:02.302Z,102122.17578125
2022-11-12T14:41:01.951Z,102118.18359375
2022-11-12T14:42:01.940Z,102115.38671875
2022-11-12T14:43:01.945Z,102122.31640625
2022-11-12T14:44:13.183Z,102118.6953125
2022-11-12T14:45:02.219Z,102121.3125
2022-11-12T14:46:02.092Z,102120.84375
2022-11-12T14:47:02.213Z,102122.21875
2022-11-12T14:48:02.061Z,102117.734375
2022-11-12T14:49:01.864Z,102119.30859375
2022-11-12T14:50:02.223Z,102118.55859375
2022-11-12T14:51:01.866Z,102120.4453125
2022-11-12T14:52:02.028Z,102117.046875
2022-11-12T14:53:01.875Z,102120.0078125
2022-11-12T14:54:02.047Z,102120.2421875
2022-11-12T14:55:07.845Z,102121.921875
2022-11-12T14:56:02.031Z,102126.21484375
2022-11-12T14:57:01.996Z,102126.140625
2022-11-12T14:58:02.080Z,102124.46875
2022-11-12T14:59:02.050Z,102122.59375
2022-11-12T15:00:02.511Z,102126.140625
2022-11-12T15:01:01.976Z,102124.9453125
2022-11-12T15:02:29.480Z,102123.97265625
2022-11-12T15:03:02.194Z,102124.25390625
2022-11-12T15:04:02.002Z,102123.47265625
2022-11-12T15:05:02.202Z,102123.8046875
2022-11-12T15:06:04.978Z,102122.1015625
2022-11-12T15:07:01.961Z,102124.265625
2022-11-12T15:08:01.942Z,102124.75390625
2022-11-12T15:09:02.017Z,102122.58203125
2022-11-12T15:10:02.387Z,102119.46875
2022-11-12T15:11:01.949Z,102121.1015625
2022-11-12T15:12:01.845Z,102127.5390625
2022-11-12T15:13:02.002Z,102125
2022-11-12T15:14:02.066Z,102123.56640625
2022-11-12T15:15:02.315Z,102125.890625
2022-11-12T15:16:02.087Z,102124.55078125
2022-11-12T15:17:05.286Z,102129.6015625
2022-11-12T15:18:02.048Z,102126.4609375
2022-11-12T15:19:01.976Z,102124.9453125
2022-11-12T15:20:02.320Z,102122.5546875
2022-11-12T15:21:01.958Z,102119.94921875
2022-11-12T15:22:01.969Z,102121.31640625
2022-11-12T15:23:01.872Z,102125.94140625
2022-11-12T15:24:02.032Z,102123.34375
2022-11-12T15:25:02.387Z,102121.44140625
2022-11-12T15:26:02.037Z,102118.359375
2022-11-12T15:27:01.976Z,102121.625
2022-11-12T15:28:04.874Z,102116.83203125
2022-11-12T15:29:02.072Z,102116.77734375
2022-11-12T15:30:02.216Z,102116.984375
2022-11-12T15:31:01.941Z,102119.01171875
2022-11-12T15:32:02.217Z,102112.625
2022-11-12T15:33:02.020Z,102114.44140625
2022-11-12T15:34:01.978Z,102115.5859375
2022-11-12T15:35:01.842Z,102114.2109375
2022-11-12T15:36:01.871Z,102112.13671875
2022-11-12T15:37:02.229Z,102107.8984375
2022-11-12T15:38:01.864Z,102108.98828125
2022-11-12T15:39:04.988Z,102107.8515625
2022-11-12T15:40:01.911Z,102111.8046875
2022-11-12T15:41:01.975Z,102109.85546875
2022-11-12T15:42:02.460Z,102109.96484375
2022-11-12T15:43:02.031Z,102108.96875
2022-11-12T15:44:01.990Z,102109.19140625
2022-11-12T15:45:02.024Z,102105.88671875
2022-11-12T15:46:02.378Z,102107.890625
2022-11-12T15:47:02.235Z,102108.69921875
2022-11-12T15:48:02.031Z,102107.79296875
2022-11-12T15:49:01.875Z,102105.953125
2022-11-12T15:50:04.889Z,102104.08984375
2022-11-12T15:51:02.296Z,102099.5703125
2022-11-12T15:52:01.951Z,102103.6484375
2022-11-12T15:53:01.961Z,102098.68359375
2022-11-12T15:54:01.865Z,102099.1328125
2022-11-12T15:55:02.000Z,102096.265625
2022-11-12T15:56:02.223Z,102097.22265625
2022-11-12T15:57:01.973Z,102094.03515625
2022-11-12T15:58:02.047Z,102093.51171875
2022-11-12T15:59:01.862Z,102091.69921875
2022-11-12T16:00:07.853Z,102090.1796875
2022-11-12T16:01:02.241Z,102090.2734375
2022-11-12T16:02:01.868Z,102089.234375
2022-11-12T16:03:02.000Z,102090.16015625
2022-11-12T16:04:01.974Z,102089.16015625
2022-11-12T16:05:01.876Z,102087.53125
2022-11-12T16:06:08.911Z,102087.12890625
2022-11-12T16:07:02.107Z,102087.6484375
2022-11-12T16:08:01.942Z,102084.94140625
2022-11-12T16:09:01.856Z,102084.40234375
2022-11-12T16:10:02.070Z,102086.9921875
2022-11-12T16:11:02.307Z,102085.453125
2022-11-12T16:12:01.838Z,102082.98828125
2022-11-12T16:13:02.001Z,102085.53515625
2022-11-12T16:14:02.047Z,102084.50390625
2022-11-12T16:15:02.368Z,102082.9765625
2022-11-12T16:16:02.224Z,102084.140625
2022-11-12T16:17:05.003Z,102080.94140625
2022-11-12T16:18:02.002Z,102079.5703125
2022-11-12T16:19:01.975Z,102079.82421875
2022-11-12T16:20:02.006Z,102080.19921875
2022-11-12T16:21:02.304Z,102079.37890625
2022-11-12T16:22:01.959Z,102079.59765625
2022-11-12T16:23:01.966Z,102080.03515625
2022-11-12T16:24:01.865Z,102080.109375
2022-11-12T16:25:01.968Z,102077.6640625
2022-11-12T16:26:02.302Z,102075.49609375
2022-11-12T16:27:01.972Z,102072.8203125
2022-11-12T16:28:04.986Z,102071.515625
2022-11-12T16:29:02.069Z,102074.42578125
2022-11-12T16:30:02.312Z,102069.8515625
2022-11-12T16:31:02.232Z,102072.6953125
2022-11-12T16:32:02.052Z,102074.984375
2022-11-12T16:33:01.993Z,102071.53125
2022-11-12T16:34:01.867Z,102075.7734375
2022-11-12T16:35:01.926Z,102071.8828125
2022-11-12T16:36:02.365Z,102069.6953125
2022-11-12T16:37:02.061Z,102073.34765625
2022-11-12T16:38:01.863Z,102069.06640625
2022-11-12T16:39:04.976Z,102068.06640625
2022-11-12T16:40:02.039Z,102071.27734375
2022-11-12T16:41:02.058Z,102071.5078125
2022-11-12T16:42:02.024Z,102068.296875
2022-11-12T16:43:01.997Z,102071.78515625
2022-11-12T16:44:02.031Z,102069.85546875
2022-11-12T16:45:02.247Z,102072.90234375
2022-11-12T16:46:02.347Z,102069.37109375
2022-11-12T16:47:02.074Z,102071.375
2022-11-12T16:48:01.933Z,102074.40234375
2022-11-12T16:49:01.962Z,102071.609375
2022-11-12T16:50:04.989Z,102071.28515625
2022-11-12T16:51:02.036Z,102069.84765625
2022-11-12T16:52:01.875Z,102070.15234375
2022-11-12T16:53:02.046Z,102071.6171875
2022-11-12T16:54:02.083Z,102071.1484375
2022-11-12T16:55:04.813Z,102074.33984375
2022-11-12T16:56:02.232Z,102071.9609375
2022-11-12T16:57:01.961Z,102072.5078125
2022-11-12T16:58:01.843Z,102073.64453125
2022-11-12T16:59:01.948Z,102079.12109375
2022-11-12T17:00:02.328Z,102079.60546875
2022-11-12T17:01:07.994Z,102083.8125
2022-11-12T17:02:02.056Z,102080.41015625
2022-11-12T17:03:01.963Z,102081.8828125
2022-11-12T17:04:01.882Z,102082.75390625
2022-11-12T17:05:03.760Z,102080.0859375
2022-11-12T17:06:02.275Z,102078.5546875
2022-11-12T17:07:02.021Z,102079.75390625
2022-11-12T17:08:02.009Z,102077.5234375
2022-11-12T17:09:01.928Z,102073.109375
2022-11-12T17:10:01.933Z,102076.00390625
2022-11-12T17:11:02.297Z,102071.140625
2022-11-12T17:12:05.069Z,102066.3046875
2022-11-12T17:13:02.426Z,102069.80078125
2022-11-12T17:14:01.962Z,102069.05078125
2022-11-12T17:15:02.325Z,102065.125
2022-11-12T17:16:02.099Z,102064.1484375
2022-11-12T17:17:01.933Z,102063.2890625
2022-11-12T17:18:01.966Z,102062
2022-11-12T17:19:01.982Z,102066.8515625
2022-11-12T17:20:01.963Z,102064.63671875
2022-11-12T17:21:02.355Z,102064.5703125
2022-11-12T17:22:02.068Z,102064.81640625
2022-11-12T17:23:04.962Z,102066.2890625
2022-11-12T17:24:01.949Z,102065.10546875
2022-11-12T17:25:02.290Z,102063.00390625
2022-11-12T17:26:02.096Z,102063.65625
2022-11-12T17:27:02.084Z,102063.39453125
2022-11-12T17:28:02.052Z,102061.68359375
2022-11-12T17:29:07.660Z,102060.48828125
2022-11-12T17:30:02.326Z,102058.1328125
2022-11-12T17:31:02.025Z,102059.28125
2022-11-12T17:32:01.866Z,102048.89453125
2022-11-12T17:33:02.059Z,102047.40234375
2022-11-12T17:34:04.867Z,102053.73046875
2022-11-12T17:35:02.219Z,102053.30859375
2022-11-12T17:36:02.086Z,102053.07421875
2022-11-12T17:37:04.855Z,102060.1875
2022-11-12T17:38:02.079Z,102055.19921875
2022-11-12T17:39:01.993Z,102054.0546875
2022-11-12T17:40:02.233Z,102052.1171875
2022-11-12T17:41:01.869Z,102051.14453125
2022-11-12T17:42:01.911Z,102049.71484375
2022-11-12T17:43:01.990Z,102051.88671875
2022-11-12T17:44:01.868Z,102053.765625
2022-11-12T17:45:08.011Z,102054.953125
2022-11-12T17:46:01.936Z,102053.05859375
2022-11-12T17:47:01.974Z,102059.16796875
2022-11-12T17:48:02.040Z,102057.3203125
2022-11-12T17:49:02.011Z,102057.39453125
2022-11-12T17:50:02.214Z,102056.5859375
2022-11-12T17:51:01.851Z,102058.5546875
2022-11-12T17:52:01.847Z,102058.25
2022-11-12T17:53:02.049Z,102057.69140625
2022-11-12T17:54:02.152Z,102055.01953125
2022-11-12T17:55:02.331Z,102060.0703125
2022-11-12T17:56:04.913Z,102063.421875
2022-11-12T17:57:01.957Z,102061.015625
2022-11-12T17:58:01.849Z,102057.28515625
2022-11-12T17:59:02.072Z,102055.0078125
2022-11-12T18:00:01.985Z,102051.1796875
2022-11-12T18:01:01.918Z,102051.15625
2022-11-12T18:02:01.985Z,102050.76953125
2022-11-12T18:03:02.017Z,102053.0078125
2022-11-12T18:04:01.931Z,102052.66015625
2022-11-12T18:05:02.304Z,102053.4375
2022-11-12T18:06:02.084Z,102056.34765625
2022-11-12T18:07:04.994Z,102055.31640625
2022-11-12T18:08:01.983Z,102053.5234375
2022-11-12T18:09:02.439Z,102054.76171875
2022-11-12T18:10:02.223Z,102053.265625
2022-11-12T18:11:02.091Z,102050.61328125
2022-11-12T18:12:02.020Z,102050.96484375
2022-11-12T18:13:01.981Z,102048.4453125
2022-11-12T18:14:02.001Z,102045.265625
2022-11-12T18:15:02.242Z,102041.328125
2022-11-12T18:16:01.947Z,102043.75
2022-11-12T18:17:02.283Z,102045.59375
2022-11-12T18:18:05.147Z,102046.72265625
2022-11-12T18:19:01.951Z,102049.24609375
2022-11-12T18:20:02.298Z,102049.078125
2022-11-12T18:21:02.054Z,102048.75
2022-11-12T18:22:01.869Z,102050.265625
2022-11-12T18:23:02.018Z,102046.734375
2022-11-12T18:24:02.013Z,102048.171875
2022-11-12T18:25:01.878Z,102052.38671875
2022-11-12T18:26:01.858Z,102049.40234375
2022-11-12T18:27:01.877Z,102048.7578125
2022-11-12T18:28:01.978Z,102048.84375
2022-11-12T18:29:04.939Z,102046.8125
2022-11-12T18:30:01.974Z,102045.328125
2022-11-12T18:31:01.862Z,102048.64453125
2022-11-12T18:32:01.948Z,102041.015625
2022-11-12T18:33:01.858Z,102041.34765625
2022-11-12T18:34:02.086Z,102045.83984375
2022-11-12T18:35:02.217Z,102042.53515625
2022-11-12T18:36:01.866Z,102040.203125
2022-11-12T18:37:01.951Z,102040.6484375
2022-11-12T18:38:01.865Z,102044.53125
2022-11-12T18:39:01.850Z,102042.93359375
2022-11-12T18:40:07.955Z,102047.1953125
2022-11-12T18:41:02.030Z,102043.60546875
2022-11-12T18:42:01.916Z,102047.1640625
2022-11-12T18:43:01.984Z,102045.703125
2022-11-12T18:44:01.974Z,102042.66015625
2022-11-12T18:45:01.987Z,102042.5390625
2022-11-12T18:46:01.886Z,102042.0703125
2022-11-12T18:47:02.363Z,102038.64453125
2022-11-12T18:48:02.086Z,102039.83203125
2022-11-12T18:49:02.071Z,102033.875
2022-11-12T18:50:08.221Z,102031.96484375
2022-11-12T18:51:04.885Z,102030.26953125
2022-11-12T18:52:02.058Z,102030.70703125
2022-11-12T18:53:01.850Z,102027.7421875
2022-11-12T18:54:01.949Z,102020.15234375
2022-11-12T18:55:01.943Z,102022.01953125
2022-11-12T18:56:01.849Z,102018.8359375
2022-11-12T18:57:01.987Z,102018.8984375
2022-11-12T18:58:01.857Z,102020.4609375
2022-11-12T18:59:01.932Z,102020.1875
2022-11-12T19:00:02.363Z,102018.578125
2022-11-12T19:01:02.065Z,102022.6953125
2022-11-12T19:02:07.907Z,102012.69921875
2022-11-12T19:03:01.960Z,102008.984375
2022-11-12T19:04:01.978Z,102009.14453125
2022-11-12T19:05:02.211Z,102007.7890625
2022-11-12T19:06:01.971Z,102009.36328125
2022-11-12T19:07:01.927Z,102006.06640625
2022-11-12T19:08:02.066Z,102006.09375
2022-11-12T19:09:01.879Z,102003.90625
2022-11-12T19:10:02.335Z,102002.4609375
2022-11-12T19:11:02.078Z,102002.4453125
2022-11-12T19:12:02.033Z,101995.7890625
2022-11-12T19:13:04.873Z,101994.78515625
2022-11-12T19:14:01.936Z,101994.73046875
2022-11-12T19:15:02.303Z,101996.71484375
2022-11-12T19:16:02.039Z,101994.82421875
2022-11-12T19:17:02.243Z,102001.3125
2022-11-12T19:18:01.946Z,102001.23828125
2022-11-12T19:19:02.008Z,102001.2890625
2022-11-12T19:20:02.283Z,102003.80859375
2022-11-12T19:21:02.046Z,102004.12890625
2022-11-12T19:22:01.985Z,102000.84375
2022-11-12T19:23:01.930Z,102007.9765625
2022-11-12T19:24:04.966Z,102005.94921875
2022-11-12T19:25:02.213Z,102009.47265625
2022-11-12T19:26:02.044Z,102010.36328125
2022-11-12T19:27:01.998Z,102009.453125
